sensor_id;sensor_type;location;lat;lon;timestamp;pressure;altitude;pressure_sealevel;temperature;humidity
50852;BME280;43953;45.508;-122.806;2022-09-17T00:00:06;100962.50;;;22.97;38.76
50852;BME280;43953;45.508;-122.806;2022-09-17T00:00:38;100963.63;;;22.96;38.69
50852;BME280;43953;45.508;-122.806;2022-09-17T00:01:21;100966.59;;;22.94;38.47
50852;BME280;43953;45.508;-122.806;2022-09-17T00:01:54;100960.56;;;22.92;38.59
50852;BME280;43953;45.508;-122.806;2022-09-17T00:02:26;100960.56;;;22.92;38.63
50852;BME280;43953;45.508;-122.806;2022-09-17T00:02:57;100966.06;;;22.92;38.74
50852;BME280;43953;45.508;-122.806;2022-09-17T00:03:30;100958.94;;;22.91;38.56
50852;BME280;43953;45.508;-122.806;2022-09-17T00:04:02;100966.38;;;22.90;38.51
50852;BME280;43953;45.508;-122.806;2022-09-17T00:04:34;100958.94;;;22.91;38.57
50852;BME280;43953;45.508;-122.806;2022-09-17T00:05:06;100966.63;;;22.89;38.45
50852;BME280;43953;45.508;-122.806;2022-09-17T00:05:38;100959.25;;;22.89;38.49
50852;BME280;43953;45.508;-122.806;2022-09-17T00:06:11;100962.81;;;22.90;38.43
50852;BME280;43953;45.508;-122.806;2022-09-17T00:06:43;100953.75;;;22.89;38.44
50852;BME280;43953;45.508;-122.806;2022-09-17T00:07:15;100965.53;;;22.90;38.53
50852;BME280;43953;45.508;-122.806;2022-09-17T00:07:47;100955.38;;;22.90;38.57
50852;BME280;43953;45.508;-122.806;2022-09-17T00:08:18;100957.81;;;22.92;38.63
50852;BME280;43953;45.508;-122.806;2022-09-17T00:08:51;100960.88;;;22.90;38.59
50852;BME280;43953;45.508;-122.806;2022-09-17T00:09:23;100957.00;;;22.91;38.51
50852;BME280;43953;45.508;-122.806;2022-09-17T00:09:55;100957.81;;;22.92;38.59
50852;BME280;43953;45.508;-122.806;2022-09-17T00:10:27;100954.00;;;22.93;38.58
50852;BME280;43953;45.508;-122.806;2022-09-17T00:11:08;100952.34;;;22.92;38.50
50852;BME280;43953;45.508;-122.806;2022-09-17T00:11:42;100960.28;;;22.93;38.61
50852;BME280;43953;45.508;-122.806;2022-09-17T00:12:13;100954.00;;;22.93;38.72
50852;BME280;43953;45.508;-122.806;2022-09-17T00:12:46;100954.81;;;22.93;38.66
50852;BME280;43953;45.508;-122.806;2022-09-17T00:13:18;100952.88;;;22.94;38.94
50852;BME280;43953;45.508;-122.806;2022-09-17T00:13:51;100954.53;;;22.95;38.73
50852;BME280;43953;45.508;-122.806;2022-09-17T00:14:23;100945.47;;;22.94;38.79
50852;BME280;43953;45.508;-122.806;2022-09-17T00:14:55;100952.63;;;22.96;38.75
50852;BME280;43953;45.508;-122.806;2022-09-17T00:15:26;100948.78;;;22.97;38.88
50852;BME280;43953;45.508;-122.806;2022-09-17T00:15:58;100951.53;;;22.97;38.77
50852;BME280;43953;45.508;-122.806;2022-09-17T00:16:37;100947.97;;;22.96;38.67
50852;BME280;43953;45.508;-122.806;2022-09-17T00:17:09;100951.53;;;22.97;38.88
50852;BME280;43953;45.508;-122.806;2022-09-17T00:17:41;100945.22;;;22.96;38.84
50852;BME280;43953;45.508;-122.806;2022-09-17T00:18:14;100946.03;;;22.97;38.94
50852;BME280;43953;45.508;-122.806;2022-09-17T00:18:45;100950.41;;;22.98;39.01
50852;BME280;43953;45.508;-122.806;2022-09-17T00:19:19;100952.06;;;22.99;38.98
50852;BME280;43953;45.508;-122.806;2022-09-17T00:19:52;100948.47;;;22.98;38.91
50852;BME280;43953;45.508;-122.806;2022-09-17T00:20:25;100950.94;;;23.00;39.03
50852;BME280;43953;45.508;-122.806;2022-09-17T00:20:57;100948.19;;;23.00;38.96
50852;BME280;43953;45.508;-122.806;2022-09-17T00:21:29;100950.13;;;22.99;38.89
50852;BME280;43953;45.508;-122.806;2022-09-17T00:22:01;100947.38;;;22.99;38.84
50852;BME280;43953;45.508;-122.806;2022-09-17T00:22:33;100951.22;;;22.98;38.82
50852;BME280;43953;45.508;-122.806;2022-09-17T00:23:05;100942.97;;;22.98;38.95
50852;BME280;43953;45.508;-122.806;2022-09-17T00:23:38;100944.91;;;22.98;38.86
50852;BME280;43953;45.508;-122.806;2022-09-17T00:24:12;100946.84;;;22.97;38.78
50852;BME280;43953;45.508;-122.806;2022-09-17T00:24:44;100940.00;;;22.94;38.76
50852;BME280;43953;45.508;-122.806;2022-09-17T00:25:16;100947.38;;;22.94;38.83
50852;BME280;43953;45.508;-122.806;2022-09-17T00:25:47;100936.97;;;22.91;38.90
50852;BME280;43953;45.508;-122.806;2022-09-17T00:26:19;100941.91;;;22.89;38.96
50852;BME280;43953;45.508;-122.806;2022-09-17T00:26:51;100937.28;;;22.89;39.07
50852;BME280;43953;45.508;-122.806;2022-09-17T00:27:23;100938.34;;;22.88;39.13
50852;BME280;43953;45.508;-122.806;2022-09-17T00:27:55;100937.53;;;22.88;39.06
50852;BME280;43953;45.508;-122.806;2022-09-17T00:28:27;100945.78;;;22.88;39.17
50852;BME280;43953;45.508;-122.806;2022-09-17T00:28:59;100943.03;;;22.88;39.25
50852;BME280;43953;45.508;-122.806;2022-09-17T00:29:31;100939.47;;;22.87;39.29
50852;BME280;43953;45.508;-122.806;2022-09-17T00:30:03;100938.66;;;22.87;39.41
50852;BME280;43953;45.508;-122.806;2022-09-17T00:30:41;100935.38;;;22.85;39.41
50852;BME280;43953;45.508;-122.806;2022-09-17T00:31:14;100940.06;;;22.84;39.53
50852;BME280;43953;45.508;-122.806;2022-09-17T00:31:45;100939.22;;;22.84;39.56
50852;BME280;43953;45.508;-122.806;2022-09-17T00:32:17;100937.56;;;22.83;39.59
50852;BME280;43953;45.508;-122.806;2022-09-17T00:32:49;100939.50;;;22.82;39.59
50852;BME280;43953;45.508;-122.806;2022-09-17T00:33:23;100932.09;;;22.83;39.58
50852;BME280;43953;45.508;-122.806;2022-09-17T00:33:55;100937.56;;;22.83;39.65
50852;BME280;43953;45.508;-122.806;2022-09-17T00:34:27;100937.56;;;22.83;39.79
50852;BME280;43953;45.508;-122.806;2022-09-17T00:34:58;100937.56;;;22.83;39.79
50852;BME280;43953;45.508;-122.806;2022-09-17T00:35:30;100941.97;;;22.84;39.76
50852;BME280;43953;45.508;-122.806;2022-09-17T00:36:03;100932.09;;;22.83;39.78
50852;BME280;43953;45.508;-122.806;2022-09-17T00:36:36;100932.09;;;22.83;39.82
50852;BME280;43953;45.508;-122.806;2022-09-17T00:37:08;100934.84;;;22.83;39.80
50852;BME280;43953;45.508;-122.806;2022-09-17T00:37:40;100927.41;;;22.83;39.94
50852;BME280;43953;45.508;-122.806;2022-09-17T00:38:12;100932.09;;;22.83;39.75
50852;BME280;43953;45.508;-122.806;2022-09-17T00:38:43;100934.84;;;22.83;39.81
50852;BME280;43953;45.508;-122.806;2022-09-17T00:39:18;100926.59;;;22.83;39.82
50852;BME280;43953;45.508;-122.806;2022-09-17T00:39:50;100932.91;;;22.83;39.86
50852;BME280;43953;45.508;-122.806;2022-09-17T00:40:21;100934.84;;;22.83;39.98
50852;BME280;43953;45.508;-122.806;2022-09-17T00:40:53;100929.34;;;22.83;40.01
50852;BME280;43953;45.508;-122.806;2022-09-17T00:41:28;100928.25;;;22.84;39.97
50852;BME280;43953;45.508;-122.806;2022-09-17T00:42:00;100931.28;;;22.82;40.07
50852;BME280;43953;45.508;-122.806;2022-09-17T00:42:35;100937.56;;;22.83;40.20
50852;BME280;43953;45.508;-122.806;2022-09-17T00:43:10;100937.56;;;22.83;40.20
50852;BME280;43953;45.508;-122.806;2022-09-17T00:43:46;100933.19;;;22.82;40.39
50852;BME280;43953;45.508;-122.806;2022-09-17T00:44:43;100932.66;;;22.80;40.29
50852;BME280;43953;45.508;-122.806;2022-09-17T00:45:16;100930.72;;;22.80;40.58
50852;BME280;43953;45.508;-122.806;2022-09-17T00:45:47;100931.56;;;22.81;40.44
50852;BME280;43953;45.508;-122.806;2022-09-17T00:46:54;100929.66;;;22.81;40.64
50852;BME280;43953;45.508;-122.806;2022-09-17T00:48:03;100932.09;;;22.83;40.70
50852;BME280;43953;45.508;-122.806;2022-09-17T00:48:36;100928.25;;;22.84;40.81
50852;BME280;43953;45.508;-122.806;2022-09-17T00:49:12;100933.75;;;22.84;40.83
50852;BME280;43953;45.508;-122.806;2022-09-17T00:49:46;100929.88;;;22.85;40.76
50852;BME280;43953;45.508;-122.806;2022-09-17T00:50:24;100931.00;;;22.84;41.05
50852;BME280;43953;45.508;-122.806;2022-09-17T00:50:58;100935.38;;;22.85;41.15
50852;BME280;43953;45.508;-122.806;2022-09-17T00:51:40;100925.50;;;22.84;41.21
50852;BME280;43953;45.508;-122.806;2022-09-17T00:52:18;100931.50;;;22.86;41.23
50852;BME280;43953;45.508;-122.806;2022-09-17T00:52:56;100932.31;;;22.86;41.30
50852;BME280;43953;45.508;-122.806;2022-09-17T00:53:28;100926.03;;;22.86;41.29
50852;BME280;43953;45.508;-122.806;2022-09-17T00:54:02;100932.31;;;22.86;41.48
50852;BME280;43953;45.508;-122.806;2022-09-17T00:54:39;100932.31;;;22.86;41.66
50852;BME280;43953;45.508;-122.806;2022-09-17T00:55:59;100929.06;;;22.84;41.61
50852;BME280;43953;45.508;-122.806;2022-09-17T00:56:34;100920.84;;;22.84;41.63
50852;BME280;43953;45.508;-122.806;2022-09-17T00:57:07;100931.81;;;22.84;41.83
50852;BME280;43953;45.508;-122.806;2022-09-17T00:57:39;100927.41;;;22.83;41.83
50852;BME280;43953;45.508;-122.806;2022-09-17T00:58:14;100924.66;;;22.83;41.98
50852;BME280;43953;45.508;-122.806;2022-09-17T00:58:48;100921.91;;;22.83;42.04
50852;BME280;43953;45.508;-122.806;2022-09-17T00:59:20;100936.50;;;22.84;41.98
50852;BME280;43953;45.508;-122.806;2022-09-17T00:59:53;100924.66;;;22.83;42.03
50852;BME280;43953;45.508;-122.806;2022-09-17T01:00:26;100930.47;;;22.82;42.17
50852;BME280;43953;45.508;-122.806;2022-09-17T01:00:58;100935.94;;;22.82;42.01
50852;BME280;43953;45.508;-122.806;2022-09-17T01:01:31;100930.47;;;22.82;42.01
50852;BME280;43953;45.508;-122.806;2022-09-17T01:02:03;100927.97;;;22.80;42.16
50852;BME280;43953;45.508;-122.806;2022-09-17T01:02:35;100935.13;;;22.81;42.24
50852;BME280;43953;45.508;-122.806;2022-09-17T01:03:08;100938.97;;;22.80;42.20
50852;BME280;43953;45.508;-122.806;2022-09-17T01:03:40;100930.72;;;22.80;42.18
50852;BME280;43953;45.508;-122.806;2022-09-17T01:04:17;100925.53;;;22.79;42.44
50852;BME280;43953;45.508;-122.806;2022-09-17T01:04:49;100926.34;;;22.79;42.21
50852;BME280;43953;45.508;-122.806;2022-09-17T01:05:32;100928.56;;;22.77;42.39
50852;BME280;43953;45.508;-122.806;2022-09-17T01:06:21;100929.13;;;22.74;42.42
50852;BME280;43953;45.508;-122.806;2022-09-17T01:07:10;100922.81;;;22.74;42.46
50852;BME280;43953;45.508;-122.806;2022-09-17T01:08:01;100927.25;;;22.69;42.42
50852;BME280;43953;45.508;-122.806;2022-09-17T01:08:58;100925.59;;;22.68;42.59
50852;BME280;43953;45.508;-122.806;2022-09-17T01:13:27;100926.72;;;22.62;42.77
50852;BME280;43953;45.508;-122.806;2022-09-17T01:17:45;100926.25;;;22.55;42.97
50852;BME280;43953;45.508;-122.806;2022-09-17T01:19:40;100931.75;;;22.50;43.17
50852;BME280;43953;45.508;-122.806;2022-09-17T01:21:38;100932.06;;;22.48;43.16
50852;BME280;43953;45.508;-122.806;2022-09-17T01:22:25;100928.50;;;22.48;43.17
50852;BME280;43953;45.508;-122.806;2022-09-17T01:25:13;100923.03;;;22.43;43.13
50852;BME280;43953;45.508;-122.806;2022-09-17T01:27:31;100914.81;;;22.43;43.48
50852;BME280;43953;45.508;-122.806;2022-09-17T01:32:40;100924.69;;;22.39;43.46
50852;BME280;43953;45.508;-122.806;2022-09-17T01:38:12;100912.09;;;22.33;43.58
50852;BME280;43953;45.508;-122.806;2022-09-17T01:38:58;100915.94;;;22.32;43.71
50852;BME280;43953;45.508;-122.806;2022-09-17T01:39:55;100909.09;;;22.29;43.58
50852;BME280;43953;45.508;-122.806;2022-09-17T01:40:44;100908.28;;;22.29;43.63
50852;BME280;43953;45.508;-122.806;2022-09-17T01:41:30;100915.97;;;22.26;43.80
50852;BME280;43953;45.508;-122.806;2022-09-17T01:43:10;100915.16;;;22.26;43.72
50852;BME280;43953;45.508;-122.806;2022-09-17T01:43:54;100912.72;;;22.24;43.81
50852;BME280;43953;45.508;-122.806;2022-09-17T01:44:35;100909.97;;;22.24;43.80
50852;BME280;43953;45.508;-122.806;2022-09-17T01:45:20;100913.78;;;22.23;43.79
50852;BME280;43953;45.508;-122.806;2022-09-17T01:46:19;100920.09;;;22.24;43.83
50852;BME280;43953;45.508;-122.806;2022-09-17T01:46:57;100911.88;;;22.24;43.94
50852;BME280;43953;45.508;-122.806;2022-09-17T01:47:37;100918.47;;;22.23;43.89
50852;BME280;43953;45.508;-122.806;2022-09-17T01:48:17;100910.53;;;22.21;44.04
50852;BME280;43953;45.508;-122.806;2022-09-17T01:48:50;100908.88;;;22.20;44.09
50852;BME280;43953;45.508;-122.806;2022-09-17T01:49:24;100904.19;;;22.21;44.08
50852;BME280;43953;45.508;-122.806;2022-09-17T01:50:02;100919.84;;;22.20;43.99
50852;BME280;43953;45.508;-122.806;2022-09-17T01:50:48;100905.63;;;22.18;44.13
50852;BME280;43953;45.508;-122.806;2022-09-17T01:51:23;100906.44;;;22.19;44.02
50852;BME280;43953;45.508;-122.806;2022-09-17T01:51:56;100911.09;;;22.18;44.08
50852;BME280;43953;45.508;-122.806;2022-09-17T01:52:31;100903.97;;;22.17;44.11
50852;BME280;43953;45.508;-122.806;2022-09-17T01:53:06;100913.84;;;22.18;44.19
50852;BME280;43953;45.508;-122.806;2022-09-17T01:53:54;100914.34;;;22.15;44.30
50852;BME280;43953;45.508;-122.806;2022-09-17T01:54:36;100907.22;;;22.14;44.16
50852;BME280;43953;45.508;-122.806;2022-09-17T01:55:14;100902.84;;;22.13;44.29
50852;BME280;43953;45.508;-122.806;2022-09-17T01:55:48;100906.41;;;22.14;44.39
50852;BME280;43953;45.508;-122.806;2022-09-17T01:56:25;100911.09;;;22.13;44.38
50852;BME280;43953;45.508;-122.806;2022-09-17T01:57:03;100910.28;;;22.13;44.49
50852;BME280;43953;45.508;-122.806;2022-09-17T01:57:56;100908.09;;;22.10;44.39
50852;BME280;43953;45.508;-122.806;2022-09-17T01:58:35;100916.31;;;22.10;44.50
50852;BME280;43953;45.508;-122.806;2022-09-17T01:59:19;100905.63;;;22.08;44.63
50852;BME280;43953;45.508;-122.806;2022-09-17T02:00:08;100908.66;;;22.07;44.51
50852;BME280;43953;45.508;-122.806;2022-09-17T02:00:52;100914.13;;;22.07;44.45
50852;BME280;43953;45.508;-122.806;2022-09-17T02:01:28;100918.78;;;22.06;44.53
50852;BME280;43953;45.508;-122.806;2022-09-17T02:02:21;100914.94;;;22.07;44.60
50852;BME280;43953;45.508;-122.806;2022-09-17T02:03:06;100911.41;;;22.07;44.65
50852;BME280;43953;45.508;-122.806;2022-09-17T02:03:55;100906.44;;;22.03;44.65
50852;BME280;43953;45.508;-122.806;2022-09-17T02:04:32;100911.94;;;22.03;44.68
50852;BME280;43953;45.508;-122.806;2022-09-17T02:05:26;100911.13;;;22.03;44.65
50852;BME280;43953;45.508;-122.806;2022-09-17T02:06:00;100908.38;;;22.03;44.60
50852;BME280;43953;45.508;-122.806;2022-09-17T02:06:37;100904.53;;;22.04;44.61
50852;BME280;43953;45.508;-122.806;2022-09-17T02:07:18;100914.66;;;22.03;44.53
50852;BME280;43953;45.508;-122.806;2022-09-17T02:08:17;100914.97;;;22.02;44.78
50852;BME280;43953;45.508;-122.806;2022-09-17T02:08:59;100908.66;;;22.01;44.63
50852;BME280;43953;45.508;-122.806;2022-09-17T02:09:37;100905.94;;;22.01;44.61
50852;BME280;43953;45.508;-122.806;2022-09-17T02:10:17;100906.75;;;22.02;44.76
50852;BME280;43953;45.508;-122.806;2022-09-17T02:10:55;100909.47;;;22.02;44.60
50852;BME280;43953;45.508;-122.806;2022-09-17T02:11:29;100909.47;;;22.02;44.77
50852;BME280;43953;45.508;-122.806;2022-09-17T02:12:07;100909.47;;;22.02;44.75
50852;BME280;43953;45.508;-122.806;2022-09-17T02:12:43;100905.13;;;22.01;44.75
50852;BME280;43953;45.508;-122.806;2022-09-17T02:13:41;100912.78;;;21.99;44.86
50852;BME280;43953;45.508;-122.806;2022-09-17T02:14:19;100905.69;;;21.98;44.69
50852;BME280;43953;45.508;-122.806;2022-09-17T02:14:53;100906.50;;;21.98;44.79
50852;BME280;43953;45.508;-122.806;2022-09-17T02:15:35;100903.19;;;21.96;44.80
50852;BME280;43953;45.508;-122.806;2022-09-17T02:16:35;100907.63;;;21.92;44.75
50852;BME280;43953;45.508;-122.806;2022-09-17T02:18:33;100903.50;;;21.90;44.76
50852;BME280;43953;45.508;-122.806;2022-09-17T02:19:37;100905.69;;;21.88;44.70
50852;BME280;43953;45.508;-122.806;2022-09-17T02:20:45;100895.03;;;21.86;44.77
50852;BME280;43953;45.508;-122.806;2022-09-17T02:22:47;100894.72;;;21.88;44.50
50852;BME280;43953;45.508;-122.806;2022-09-17T02:23:26;100899.66;;;21.86;44.55
50852;BME280;43953;45.508;-122.806;2022-09-17T02:25:07;100899.66;;;21.86;44.72
50852;BME280;43953;45.508;-122.806;2022-09-17T02:25:56;100895.28;;;21.85;44.36
50852;BME280;43953;45.508;-122.806;2022-09-17T02:26:31;100895.28;;;21.85;44.67
50852;BME280;43953;45.508;-122.806;2022-09-17T02:28:13;100896.94;;;21.86;44.63
50852;BME280;43953;45.508;-122.806;2022-09-17T02:28:54;100893.66;;;21.84;44.67
50852;BME280;43953;45.508;-122.806;2022-09-17T02:29:48;100897.47;;;21.83;44.67
50852;BME280;43953;45.508;-122.806;2022-09-17T02:30:19;100894.75;;;21.83;44.73
50852;BME280;43953;45.508;-122.806;2022-09-17T02:30:50;100893.13;;;21.81;44.51
50852;BME280;43953;45.508;-122.806;2022-09-17T02:31:22;100895.84;;;21.81;44.75
50852;BME280;43953;45.508;-122.806;2022-09-17T02:31:54;100895.84;;;21.81;44.68
50852;BME280;43953;45.508;-122.806;2022-09-17T02:32:26;100895.84;;;21.81;44.64
50852;BME280;43953;45.508;-122.806;2022-09-17T02:33:02;100893.41;;;21.80;44.71
50852;BME280;43953;45.508;-122.806;2022-09-17T02:33:38;100894.22;;;21.80;44.61
50852;BME280;43953;45.508;-122.806;2022-09-17T02:34:11;100893.41;;;21.80;44.79
50852;BME280;43953;45.508;-122.806;2022-09-17T02:34:43;100893.69;;;21.78;44.74
50852;BME280;43953;45.508;-122.806;2022-09-17T02:35:15;100890.13;;;21.78;44.68
50852;BME280;43953;45.508;-122.806;2022-09-17T02:35:46;100894.78;;;21.77;44.69
50852;BME280;43953;45.508;-122.806;2022-09-17T02:36:19;100893.97;;;21.77;44.91
50852;BME280;43953;45.508;-122.806;2022-09-17T02:36:52;100896.97;;;21.75;44.93
50852;BME280;43953;45.508;-122.806;2022-09-17T02:37:24;100892.88;;;21.73;44.74
50852;BME280;43953;45.508;-122.806;2022-09-17T02:37:55;100892.06;;;21.72;44.92
50852;BME280;43953;45.508;-122.806;2022-09-17T02:38:29;100891.25;;;21.72;44.97
50852;BME280;43953;45.508;-122.806;2022-09-17T02:39:03;100891.50;;;21.70;44.97
50852;BME280;43953;45.508;-122.806;2022-09-17T02:39:35;100892.31;;;21.71;44.87
50852;BME280;43953;45.508;-122.806;2022-09-17T02:40:08;100890.13;;;21.68;45.05
50852;BME280;43953;45.508;-122.806;2022-09-17T02:40:46;100893.16;;;21.66;44.99
50852;BME280;43953;45.508;-122.806;2022-09-17T02:41:22;100892.34;;;21.66;44.84
50852;BME280;43953;45.508;-122.806;2022-09-17T02:43:11;100886.59;;;21.62;44.87
50852;BME280;43953;45.508;-122.806;2022-09-17T02:44:17;100889.63;;;21.61;45.02
50852;BME280;43953;45.508;-122.806;2022-09-17T02:46:22;100894.84;;;21.57;44.99
50852;BME280;43953;45.508;-122.806;2022-09-17T02:49:36;100892.91;;;21.57;44.83
50852;BME280;43953;45.508;-122.806;2022-09-17T02:51:17;100889.63;;;21.55;44.89
50852;BME280;43953;45.508;-122.806;2022-09-17T02:57:14;100886.94;;;21.50;45.05
50852;BME280;43953;45.508;-122.806;2022-09-17T02:57:56;100892.66;;;21.49;45.14
50852;BME280;43953;45.508;-122.806;2022-09-17T02:59:59;100886.63;;;21.47;45.03
50852;BME280;43953;45.508;-122.806;2022-09-17T03:00:34;100888.56;;;21.46;45.29
50852;BME280;43953;45.508;-122.806;2022-09-17T03:01:11;100880.63;;;21.45;45.21
50852;BME280;43953;45.508;-122.806;2022-09-17T03:03:42;100883.91;;;21.47;45.44
50852;BME280;43953;45.508;-122.806;2022-09-17T03:04:15;100887.75;;;21.46;45.44
50852;BME280;43953;45.508;-122.806;2022-09-17T03:04:49;100893.78;;;21.43;45.35
50852;BME280;43953;45.508;-122.806;2022-09-17T03:05:22;100888.31;;;21.43;45.38
50852;BME280;43953;45.508;-122.806;2022-09-17T03:05:55;100879.53;;;21.41;45.35
50852;BME280;43953;45.508;-122.806;2022-09-17T03:06:28;100880.34;;;21.41;45.39
50852;BME280;43953;45.508;-122.806;2022-09-17T03:07:07;100881.44;;;21.40;45.33
50852;BME280;43953;45.508;-122.806;2022-09-17T03:07:39;100875.97;;;21.40;45.58
50852;BME280;43953;45.508;-122.806;2022-09-17T03:08:13;100879.81;;;21.39;45.59
50852;BME280;43953;45.508;-122.806;2022-09-17T03:08:45;100879.81;;;21.39;45.42
50852;BME280;43953;45.508;-122.806;2022-09-17T03:09:17;100874.59;;;21.38;45.53
50852;BME280;43953;45.508;-122.806;2022-09-17T03:09:49;100880.09;;;21.38;45.63
50852;BME280;43953;45.508;-122.806;2022-09-17T03:10:21;100880.91;;;21.38;45.56
50852;BME280;43953;45.508;-122.806;2022-09-17T03:10:53;100878.16;;;21.38;45.60
50852;BME280;43953;45.508;-122.806;2022-09-17T03:11:25;100877.34;;;21.38;45.81
50852;BME280;43953;45.508;-122.806;2022-09-17T03:11:57;100875.72;;;21.37;45.67
50852;BME280;43953;45.508;-122.806;2022-09-17T03:12:28;100882.81;;;21.38;45.90
50852;BME280;43953;45.508;-122.806;2022-09-17T03:13:35;100872.16;;;21.36;45.78
50852;BME280;43953;45.508;-122.806;2022-09-17T03:14:07;100877.63;;;21.36;46.01
50852;BME280;43953;45.508;-122.806;2022-09-17T03:14:39;100880.59;;;21.34;46.05
50852;BME280;43953;45.508;-122.806;2022-09-17T03:15:10;100879.78;;;21.34;46.08
50852;BME280;43953;45.508;-122.806;2022-09-17T03:15:42;100875.94;;;21.35;46.04
50852;BME280;43953;45.508;-122.806;2022-09-17T03:16:14;100875.13;;;21.34;45.82
50852;BME280;43953;45.508;-122.806;2022-09-17T03:16:46;100879.53;;;21.35;46.19
50852;BME280;43953;45.508;-122.806;2022-09-17T03:17:18;100880.59;;;21.34;46.01
50852;BME280;43953;45.508;-122.806;2022-09-17T03:17:49;100875.94;;;21.35;46.09
50852;BME280;43953;45.508;-122.806;2022-09-17T03:18:22;100873.50;;;21.33;46.18
50852;BME280;43953;45.508;-122.806;2022-09-17T03:18:54;100881.97;;;21.32;46.22
50852;BME280;43953;45.508;-122.806;2022-09-17T03:19:25;100878.41;;;21.31;46.41
50852;BME280;43953;45.508;-122.806;2022-09-17T03:19:58;100880.34;;;21.31;46.27
50852;BME280;43953;45.508;-122.806;2022-09-17T03:20:29;100883.91;;;21.31;46.30
50852;BME280;43953;45.508;-122.806;2022-09-17T03:21:01;100880.34;;;21.31;46.40
50852;BME280;43953;45.508;-122.806;2022-09-17T03:21:33;100875.97;;;21.30;46.50
50852;BME280;43953;45.508;-122.806;2022-09-17T03:22:04;100875.13;;;21.29;46.39
50852;BME280;43953;45.508;-122.806;2022-09-17T03:22:36;100879.53;;;21.30;46.41
50852;BME280;43953;45.508;-122.806;2022-09-17T03:23:08;100875.69;;;21.31;46.54
50852;BME280;43953;45.508;-122.806;2022-09-17T03:23:39;100878.72;;;21.30;46.55
50852;BME280;43953;45.508;-122.806;2022-09-17T03:24:11;100882.28;;;21.30;46.42
50852;BME280;43953;45.508;-122.806;2022-09-17T03:24:43;100882.28;;;21.30;46.38
50852;BME280;43953;45.508;-122.806;2022-09-17T03:25:15;100883.34;;;21.29;46.58
50852;BME280;43953;45.508;-122.806;2022-09-17T03:25:47;100885.00;;;21.30;46.46
50852;BME280;43953;45.508;-122.806;2022-09-17T03:26:22;100881.47;;;21.30;46.42
50852;BME280;43953;45.508;-122.806;2022-09-17T03:26:53;100879.53;;;21.30;46.43
50852;BME280;43953;45.508;-122.806;2022-09-17T03:28:06;100883.91;;;21.31;46.47
50852;BME280;43953;45.508;-122.806;2022-09-17T03:28:38;100875.97;;;21.30;46.69
50852;BME280;43953;45.508;-122.806;2022-09-17T03:29:10;100883.34;;;21.29;46.66
50852;BME280;43953;45.508;-122.806;2022-09-17T03:29:42;100878.72;;;21.30;46.64
50852;BME280;43953;45.508;-122.806;2022-09-17T03:30:14;100875.13;;;21.29;46.93
50852;BME280;43953;45.508;-122.806;2022-09-17T03:30:46;100878.72;;;21.30;46.74
50852;BME280;43953;45.508;-122.806;2022-09-17T03:31:18;100875.13;;;21.29;46.64
50852;BME280;43953;45.508;-122.806;2022-09-17T03:31:49;100877.88;;;21.29;46.47
50852;BME280;43953;45.508;-122.806;2022-09-17T03:32:21;100883.34;;;21.29;46.72
50852;BME280;43953;45.508;-122.806;2022-09-17T03:32:53;100880.91;;;21.28;46.78
50852;BME280;43953;45.508;-122.806;2022-09-17T03:33:25;100881.72;;;21.28;46.80
50852;BME280;43953;45.508;-122.806;2022-09-17T03:33:56;100880.91;;;21.28;46.81
50852;BME280;43953;45.508;-122.806;2022-09-17T03:34:29;100881.72;;;21.28;46.76
50852;BME280;43953;45.508;-122.806;2022-09-17T03:35:00;100876.25;;;21.28;46.65
50852;BME280;43953;45.508;-122.806;2022-09-17T03:35:32;100885.56;;;21.27;46.82
50852;BME280;43953;45.508;-122.806;2022-09-17T03:36:04;100882.81;;;21.27;46.90
50852;BME280;43953;45.508;-122.806;2022-09-17T03:36:36;100876.53;;;21.27;46.96
50852;BME280;43953;45.508;-122.806;2022-09-17T03:37:07;100884.75;;;21.27;46.85
50852;BME280;43953;45.508;-122.806;2022-09-17T03:37:39;100877.59;;;21.26;47.06
50852;BME280;43953;45.508;-122.806;2022-09-17T03:38:12;100876.78;;;21.25;47.05
50852;BME280;43953;45.508;-122.806;2022-09-17T03:38:44;100876.78;;;21.25;47.02
50852;BME280;43953;45.508;-122.806;2022-09-17T03:39:15;100881.16;;;21.26;47.07
50852;BME280;43953;45.508;-122.806;2022-09-17T03:39:47;100877.34;;;21.27;46.97
50852;BME280;43953;45.508;-122.806;2022-09-17T03:40:19;100881.72;;;21.28;47.11
50852;BME280;43953;45.508;-122.806;2022-09-17T03:40:58;100879.28;;;21.27;47.04
50852;BME280;43953;45.508;-122.806;2022-09-17T03:41:30;100878.41;;;21.26;47.07
50852;BME280;43953;45.508;-122.806;2022-09-17T03:42:01;100887.47;;;21.27;47.07
50852;BME280;43953;45.508;-122.806;2022-09-17T03:42:33;100879.53;;;21.25;47.44
50852;BME280;43953;45.508;-122.806;2022-09-17T03:43:05;100885.81;;;21.26;47.13
50852;BME280;43953;45.508;-122.806;2022-09-17T03:43:37;100875.97;;;21.25;47.39
50852;BME280;43953;45.508;-122.806;2022-09-17T03:44:10;100877.91;;;21.24;47.53
50852;BME280;43953;45.508;-122.806;2022-09-17T03:44:41;100883.63;;;21.23;47.50
50852;BME280;43953;45.508;-122.806;2022-09-17T03:45:13;100880.09;;;21.22;47.29
50852;BME280;43953;45.508;-122.806;2022-09-17T03:45:45;100883.09;;;21.21;47.50
50852;BME280;43953;45.508;-122.806;2022-09-17T03:46:19;100887.47;;;21.22;47.59
50852;BME280;43953;45.508;-122.806;2022-09-17T03:46:51;100879.53;;;21.20;47.55